Airfield :
LOGIN :

Register | Disclaimer

   EN    FR    IT 

 










Legend :    VFR   Marginal VFR   IFR   Intensive IFR   Very Intensive IFR
Visi :
Ceiling :
>= 8 km
>= 3000ft
5 to 8 km
1000 to 3000 ft
1500m to 5 km
500 to 1000 ft
800 to 1500m
200 to 500 ft
< 800m
< 200 ft
Symbols :   Thunderstorms  Fog  Heavy snow  Heavy precipitations  Wind > 20 kt
SIGMETs :     Misc.  Thunderstorms  Icing  Turbulence  Mountain Waves  Volcanic Ashes







- Airport Elevation : 526 ft
- IATA code : LTN
- Download approach charts


EGGW - London Luton

CURRENT METAR :
  • 181150Z AUTO 26009KT 5000 -DZ OVC004 07/07 Q1021 REDZ

EXPIRED METARs :
  • 181120Z AUTO 26011KT 5000 -DZ BKN006 OVC012 08/06 Q1022
  • 181050Z AUTO 26010KT 9999 OVC012 08/06 Q1022
  • 181020Z AUTO 26010KT 9999 OVC011 07/06 Q1022
  • 180950Z AUTO 25011KT 9999 OVC013 08/06 Q1022
  • 180920Z AUTO 25011KT 9999 SCT011 BKN018 OVC024 07/05 Q1022

TAF TAF EGGW
Valid from the 18 at 12:00 until the 19 at 12:00 UTC


181056Z 1812/1912 26008KT 9999 BKN014
PROB40
TEMPO 1812/1815 4000 RADZ BKN004
BECMG 1815/1818 FEW035
BECMG 1901/1904 32010KT
ATIS : +44 1582 395 204
No reported NOTAMs for that airfield.



MET'MAP, your aeronautical weather chart ! - Copyright ORBIFLY December 2007 - Disclaimer

ORBIFLY MET'MAP TEAM :

Programming & Development : Alexandra Zaïnal
Concept & Development : Baudouin d'Aumeries
Co-Development & Prog : Marc-Olivier Méhu
Technical & hardware support : Manuel Goepfert

Contact : metmap@orbifly.com




SOURCES & CREDITS :

   NOAA